sensor_id;sensor_type;location;lat;lon;timestamp;P1;durP1;ratioP1;P2;durP2;ratioP2
59147;SDS011;44930;52.878;6.168;2023-12-28T00:00:29;8.90;;;3.17;;
59147;SDS011;44930;52.878;6.168;2023-12-28T00:02:55;4.53;;;2.50;;
59147;SDS011;44930;52.878;6.168;2023-12-28T00:05:21;6.30;;;2.70;;
59147;SDS011;44930;52.878;6.168;2023-12-28T00:07:47;5.95;;;3.13;;
59147;SDS011;44930;52.878;6.168;2023-12-28T00:10:12;4.80;;;2.80;;
59147;SDS011;44930;52.878;6.168;2023-12-28T00:12:38;5.03;;;3.22;;
59147;SDS011;44930;52.878;6.168;2023-12-28T00:15:04;8.77;;;3.47;;
59147;SDS011;44930;52.878;6.168;2023-12-28T00:17:30;4.95;;;2.70;;
59147;SDS011;44930;52.878;6.168;2023-12-28T00:19:56;4.93;;;2.75;;
59147;SDS011;44930;52.878;6.168;2023-12-28T00:22:21;4.25;;;2.88;;
59147;SDS011;44930;52.878;6.168;2023-12-28T00:24:47;6.97;;;3.30;;
59147;SDS011;44930;52.878;6.168;2023-12-28T00:27:13;5.03;;;2.67;;
59147;SDS011;44930;52.878;6.168;2023-12-28T00:29:38;5.78;;;3.03;;
59147;SDS011;44930;52.878;6.168;2023-12-28T00:32:06;5.95;;;2.67;;
59147;SDS011;44930;52.878;6.168;2023-12-28T00:34:32;6.72;;;3.17;;
59147;SDS011;44930;52.878;6.168;2023-12-28T00:36:58;8.73;;;3.20;;
59147;SDS011;44930;52.878;6.168;2023-12-28T00:39:24;6.07;;;2.88;;
59147;SDS011;44930;52.878;6.168;2023-12-28T00:41:49;7.93;;;3.10;;
59147;SDS011;44930;52.878;6.168;2023-12-28T00:44:15;7.43;;;3.30;;
59147;SDS011;44930;52.878;6.168;2023-12-28T00:46:40;9.85;;;3.33;;
59147;SDS011;44930;52.878;6.168;2023-12-28T00:49:06;5.28;;;2.65;;
59147;SDS011;44930;52.878;6.168;2023-12-28T00:51:33;6.78;;;3.28;;
59147;SDS011;44930;52.878;6.168;2023-12-28T00:53:59;6.75;;;2.92;;
59147;SDS011;44930;52.878;6.168;2023-12-28T00:56:24;11.35;;;3.10;;
59147;SDS011;44930;52.878;6.168;2023-12-28T00:58:50;10.07;;;2.78;;
59147;SDS011;44930;52.878;6.168;2023-12-28T01:01:15;8.07;;;3.28;;
59147;SDS011;44930;52.878;6.168;2023-12-28T01:03:41;8.00;;;3.13;;
59147;SDS011;44930;52.878;6.168;2023-12-28T01:06:07;10.82;;;3.15;;
59147;SDS011;44930;52.878;6.168;2023-12-28T01:08:33;8.23;;;2.38;;
59147;SDS011;44930;52.878;6.168;2023-12-28T01:10:59;8.52;;;3.63;;
59147;SDS011;44930;52.878;6.168;2023-12-28T01:13:25;9.45;;;2.97;;
59147;SDS011;44930;52.878;6.168;2023-12-28T01:15:51;9.82;;;2.70;;
59147;SDS011;44930;52.878;6.168;2023-12-28T01:18:17;9.82;;;2.63;;
59147;SDS011;44930;52.878;6.168;2023-12-28T01:20:43;6.72;;;2.42;;
59147;SDS011;44930;52.878;6.168;2023-12-28T01:23:09;8.00;;;2.90;;
59147;SDS011;44930;52.878;6.168;2023-12-28T01:25:35;15.23;;;4.00;;
59147;SDS011;44930;52.878;6.168;2023-12-28T01:28:00;9.77;;;2.72;;
59147;SDS011;44930;52.878;6.168;2023-12-28T01:30:26;12.20;;;4.20;;
59147;SDS011;44930;52.878;6.168;2023-12-28T01:32:52;11.75;;;2.90;;
59147;SDS011;44930;52.878;6.168;2023-12-28T01:35:17;8.32;;;3.10;;
59147;SDS011;44930;52.878;6.168;2023-12-28T01:37:43;10.05;;;2.85;;
59147;SDS011;44930;52.878;6.168;2023-12-28T01:40:09;11.77;;;3.03;;
59147;SDS011;44930;52.878;6.168;2023-12-28T01:42:36;11.88;;;3.85;;
59147;SDS011;44930;52.878;6.168;2023-12-28T01:45:02;8.85;;;2.80;;
59147;SDS011;44930;52.878;6.168;2023-12-28T01:47:28;10.25;;;2.70;;
59147;SDS011;44930;52.878;6.168;2023-12-28T01:49:54;13.85;;;2.90;;
59147;SDS011;44930;52.878;6.168;2023-12-28T01:52:21;9.82;;;3.10;;
59147;SDS011;44930;52.878;6.168;2023-12-28T01:54:46;9.32;;;3.33;;
59147;SDS011;44930;52.878;6.168;2023-12-28T01:57:14;11.00;;;3.30;;
59147;SDS011;44930;52.878;6.168;2023-12-28T01:59:41;9.48;;;3.17;;
59147;SDS011;44930;52.878;6.168;2023-12-28T02:02:07;8.80;;;2.55;;
59147;SDS011;44930;52.878;6.168;2023-12-28T02:04:33;9.82;;;2.55;;
59147;SDS011;44930;52.878;6.168;2023-12-28T02:07:00;23.38;;;4.68;;
59147;SDS011;44930;52.878;6.168;2023-12-28T02:09:26;10.18;;;2.88;;
59147;SDS011;44930;52.878;6.168;2023-12-28T02:11:52;8.73;;;2.70;;
59147;SDS011;44930;52.878;6.168;2023-12-28T02:14:19;9.15;;;3.05;;
59147;SDS011;44930;52.878;6.168;2023-12-28T02:16:54;13.65;;;3.30;;
59147;SDS011;44930;52.878;6.168;2023-12-28T02:22:23;11.10;;;2.83;;
59147;SDS011;44930;52.878;6.168;2023-12-28T02:27:22;10.98;;;2.78;;
59147;SDS011;44930;52.878;6.168;2023-12-28T02:29:47;11.55;;;2.92;;
59147;SDS011;44930;52.878;6.168;2023-12-28T02:32:13;14.82;;;2.72;;
59147;SDS011;44930;52.878;6.168;2023-12-28T02:34:40;10.82;;;2.70;;
59147;SDS011;44930;52.878;6.168;2023-12-28T02:37:10;10.05;;;2.63;;
59147;SDS011;44930;52.878;6.168;2023-12-28T02:39:38;10.05;;;2.92;;
59147;SDS011;44930;52.878;6.168;2023-12-28T02:42:06;8.05;;;2.30;;
59147;SDS011;44930;52.878;6.168;2023-12-28T02:44:31;11.52;;;2.83;;
59147;SDS011;44930;52.878;6.168;2023-12-28T02:46:57;10.73;;;2.92;;
59147;SDS011;44930;52.878;6.168;2023-12-28T02:49:23;10.13;;;2.67;;
59147;SDS011;44930;52.878;6.168;2023-12-28T02:51:49;13.13;;;2.72;;
59147;SDS011;44930;52.878;6.168;2023-12-28T02:54:14;13.18;;;3.08;;
59147;SDS011;44930;52.878;6.168;2023-12-28T02:56:40;11.55;;;2.10;;
59147;SDS011;44930;52.878;6.168;2023-12-28T02:59:06;9.85;;;2.47;;
59147;SDS011;44930;52.878;6.168;2023-12-28T03:01:32;11.25;;;2.35;;
59147;SDS011;44930;52.878;6.168;2023-12-28T03:03:58;12.55;;;3.10;;
59147;SDS011;44930;52.878;6.168;2023-12-28T03:06:24;11.52;;;2.67;;
59147;SDS011;44930;52.878;6.168;2023-12-28T03:08:50;6.47;;;2.22;;
59147;SDS011;44930;52.878;6.168;2023-12-28T03:11:15;9.40;;;2.08;;
59147;SDS011;44930;52.878;6.168;2023-12-28T03:13:41;8.50;;;2.17;;
59147;SDS011;44930;52.878;6.168;2023-12-28T03:16:07;8.80;;;1.85;;
59147;SDS011;44930;52.878;6.168;2023-12-28T03:18:33;16.05;;;2.50;;
59147;SDS011;44930;52.878;6.168;2023-12-28T03:20:59;12.95;;;2.35;;
59147;SDS011;44930;52.878;6.168;2023-12-28T03:23:25;16.52;;;2.85;;
59147;SDS011;44930;52.878;6.168;2023-12-28T03:25:50;9.85;;;2.20;;
59147;SDS011;44930;52.878;6.168;2023-12-28T03:28:16;10.13;;;2.42;;
59147;SDS011;44930;52.878;6.168;2023-12-28T03:30:42;8.95;;;2.55;;
59147;SDS011;44930;52.878;6.168;2023-12-28T03:33:08;11.27;;;3.25;;
59147;SDS011;44930;52.878;6.168;2023-12-28T03:35:34;12.77;;;2.80;;
59147;SDS011;44930;52.878;6.168;2023-12-28T03:38:00;12.45;;;2.45;;
59147;SDS011;44930;52.878;6.168;2023-12-28T03:40:25;9.25;;;2.20;;
59147;SDS011;44930;52.878;6.168;2023-12-28T03:42:51;9.25;;;2.03;;
59147;SDS011;44930;52.878;6.168;2023-12-28T03:45:16;11.10;;;2.28;;
59147;SDS011;44930;52.878;6.168;2023-12-28T03:47:42;12.63;;;2.67;;
59147;SDS011;44930;52.878;6.168;2023-12-28T03:50:08;10.02;;;1.95;;
59147;SDS011;44930;52.878;6.168;2023-12-28T03:52:34;11.48;;;2.60;;
59147;SDS011;44930;52.878;6.168;2023-12-28T03:54:59;11.57;;;2.67;;
59147;SDS011;44930;52.878;6.168;2023-12-28T03:57:25;11.52;;;2.50;;
59147;SDS011;44930;52.878;6.168;2023-12-28T03:59:51;15.50;;;3.13;;
59147;SDS011;44930;52.878;6.168;2023-12-28T04:02:19;8.80;;;2.35;;
59147;SDS011;44930;52.878;6.168;2023-12-28T04:04:44;10.35;;;2.47;;
59147;SDS011;44930;52.878;6.168;2023-12-28T04:07:10;11.23;;;2.50;;
59147;SDS011;44930;52.878;6.168;2023-12-28T04:09:36;7.72;;;2.03;;
59147;SDS011;44930;52.878;6.168;2023-12-28T04:12:02;14.93;;;2.55;;
59147;SDS011;44930;52.878;6.168;2023-12-28T04:14:27;6.82;;;2.63;;
59147;SDS011;44930;52.878;6.168;2023-12-28T04:16:53;10.25;;;2.25;;
59147;SDS011;44930;52.878;6.168;2023-12-28T04:19:19;11.50;;;2.63;;
59147;SDS011;44930;52.878;6.168;2023-12-28T04:21:45;6.70;;;2.17;;
59147;SDS011;44930;52.878;6.168;2023-12-28T04:24:10;7.53;;;2.15;;
59147;SDS011;44930;52.878;6.168;2023-12-28T04:26:36;12.27;;;2.80;;
59147;SDS011;44930;52.878;6.168;2023-12-28T04:29:02;10.82;;;2.70;;
59147;SDS011;44930;52.878;6.168;2023-12-28T04:31:27;9.10;;;2.88;;
59147;SDS011;44930;52.878;6.168;2023-12-28T04:33:53;13.65;;;4.18;;
59147;SDS011;44930;52.878;6.168;2023-12-28T04:36:19;13.52;;;2.45;;
59147;SDS011;44930;52.878;6.168;2023-12-28T04:38:45;12.50;;;2.83;;
59147;SDS011;44930;52.878;6.168;2023-12-28T04:41:11;8.65;;;2.88;;
59147;SDS011;44930;52.878;6.168;2023-12-28T04:43:36;8.57;;;2.13;;
59147;SDS011;44930;52.878;6.168;2023-12-28T04:46:06;10.07;;;2.13;;
59147;SDS011;44930;52.878;6.168;2023-12-28T04:48:32;12.45;;;2.63;;
59147;SDS011;44930;52.878;6.168;2023-12-28T04:50:57;14.57;;;2.65;;
59147;SDS011;44930;52.878;6.168;2023-12-28T04:53:23;10.35;;;2.55;;
59147;SDS011;44930;52.878;6.168;2023-12-28T04:55:49;9.65;;;3.08;;
59147;SDS011;44930;52.878;6.168;2023-12-28T04:58:14;12.75;;;2.00;;
59147;SDS011;44930;52.878;6.168;2023-12-28T05:00:40;10.82;;;2.65;;
59147;SDS011;44930;52.878;6.168;2023-12-28T05:03:06;17.50;;;3.17;;
59147;SDS011;44930;52.878;6.168;2023-12-28T05:05:32;12.98;;;3.08;;
59147;SDS011;44930;52.878;6.168;2023-12-28T05:07:58;13.65;;;2.83;;
59147;SDS011;44930;52.878;6.168;2023-12-28T05:10:23;9.50;;;2.53;;
59147;SDS011;44930;52.878;6.168;2023-12-28T05:12:49;10.48;;;2.10;;
59147;SDS011;44930;52.878;6.168;2023-12-28T05:15:14;9.48;;;2.50;;
59147;SDS011;44930;52.878;6.168;2023-12-28T05:17:40;13.80;;;2.63;;
59147;SDS011;44930;52.878;6.168;2023-12-28T05:20:06;13.63;;;2.72;;
59147;SDS011;44930;52.878;6.168;2023-12-28T05:22:32;13.15;;;2.42;;
59147;SDS011;44930;52.878;6.168;2023-12-28T05:24:58;16.27;;;3.08;;
59147;SDS011;44930;52.878;6.168;2023-12-28T05:27:24;12.77;;;2.90;;
59147;SDS011;44930;52.878;6.168;2023-12-28T05:29:49;14.02;;;3.17;;
59147;SDS011;44930;52.878;6.168;2023-12-28T05:32:15;12.40;;;2.55;;
59147;SDS011;44930;52.878;6.168;2023-12-28T05:34:41;12.00;;;3.40;;
59147;SDS011;44930;52.878;6.168;2023-12-28T05:37:07;7.30;;;2.47;;
59147;SDS011;44930;52.878;6.168;2023-12-28T05:39:32;15.70;;;2.85;;
59147;SDS011;44930;52.878;6.168;2023-12-28T05:41:58;14.05;;;3.15;;
59147;SDS011;44930;52.878;6.168;2023-12-28T05:44:24;10.65;;;2.80;;
59147;SDS011;44930;52.878;6.168;2023-12-28T05:46:49;21.45;;;3.30;;
59147;SDS011;44930;52.878;6.168;2023-12-28T05:49:15;8.10;;;2.28;;
59147;SDS011;44930;52.878;6.168;2023-12-28T05:51:40;13.35;;;2.35;;
59147;SDS011;44930;52.878;6.168;2023-12-28T05:54:07;9.88;;;2.28;;
59147;SDS011;44930;52.878;6.168;2023-12-28T05:56:32;15.07;;;3.17;;
59147;SDS011;44930;52.878;6.168;2023-12-28T05:58:58;24.83;;;3.90;;
59147;SDS011;44930;52.878;6.168;2023-12-28T06:01:24;21.35;;;3.75;;
59147;SDS011;44930;52.878;6.168;2023-12-28T06:03:50;19.30;;;3.42;;
59147;SDS011;44930;52.878;6.168;2023-12-28T06:06:19;14.10;;;2.90;;
59147;SDS011;44930;52.878;6.168;2023-12-28T06:08:45;18.13;;;3.03;;
59147;SDS011;44930;52.878;6.168;2023-12-28T06:11:12;14.85;;;2.58;;
59147;SDS011;44930;52.878;6.168;2023-12-28T06:13:37;14.98;;;3.28;;
59147;SDS011;44930;52.878;6.168;2023-12-28T06:16:03;16.88;;;2.80;;
59147;SDS011;44930;52.878;6.168;2023-12-28T06:18:29;11.38;;;2.40;;
59147;SDS011;44930;52.878;6.168;2023-12-28T06:20:54;15.60;;;2.25;;
59147;SDS011;44930;52.878;6.168;2023-12-28T06:23:20;14.85;;;2.95;;
59147;SDS011;44930;52.878;6.168;2023-12-28T06:25:46;12.77;;;2.85;;
59147;SDS011;44930;52.878;6.168;2023-12-28T06:28:11;16.05;;;3.28;;
59147;SDS011;44930;52.878;6.168;2023-12-28T06:30:37;12.77;;;2.42;;
59147;SDS011;44930;52.878;6.168;2023-12-28T06:33:04;18.73;;;3.63;;
59147;SDS011;44930;52.878;6.168;2023-12-28T06:35:30;11.20;;;2.30;;
59147;SDS011;44930;52.878;6.168;2023-12-28T06:37:56;14.07;;;2.40;;
59147;SDS011;44930;52.878;6.168;2023-12-28T06:40:22;16.55;;;3.10;;
59147;SDS011;44930;52.878;6.168;2023-12-28T06:42:48;13.57;;;2.90;;
59147;SDS011;44930;52.878;6.168;2023-12-28T06:45:14;17.50;;;2.78;;
59147;SDS011;44930;52.878;6.168;2023-12-28T06:47:40;16.52;;;2.67;;
59147;SDS011;44930;52.878;6.168;2023-12-28T06:50:06;15.48;;;3.10;;
59147;SDS011;44930;52.878;6.168;2023-12-28T06:52:32;12.93;;;2.65;;
59147;SDS011;44930;52.878;6.168;2023-12-28T06:54:58;22.63;;;3.67;;
59147;SDS011;44930;52.878;6.168;2023-12-28T06:57:23;17.10;;;3.45;;
59147;SDS011;44930;52.878;6.168;2023-12-28T06:59:49;9.63;;;2.65;;
59147;SDS011;44930;52.878;6.168;2023-12-28T07:02:15;14.15;;;3.67;;
59147;SDS011;44930;52.878;6.168;2023-12-28T07:04:41;14.10;;;3.90;;
59147;SDS011;44930;52.878;6.168;2023-12-28T07:07:07;13.98;;;2.90;;
59147;SDS011;44930;52.878;6.168;2023-12-28T07:09:32;17.90;;;2.97;;
59147;SDS011;44930;52.878;6.168;2023-12-28T07:11:58;16.92;;;3.40;;
59147;SDS011;44930;52.878;6.168;2023-12-28T07:14:24;12.20;;;2.33;;
59147;SDS011;44930;52.878;6.168;2023-12-28T07:16:50;15.23;;;3.10;;
59147;SDS011;44930;52.878;6.168;2023-12-28T07:19:15;21.17;;;3.78;;
59147;SDS011;44930;52.878;6.168;2023-12-28T07:21:41;16.27;;;2.90;;
59147;SDS011;44930;52.878;6.168;2023-12-28T07:24:07;16.88;;;2.47;;
59147;SDS011;44930;52.878;6.168;2023-12-28T07:26:33;16.95;;;3.38;;
59147;SDS011;44930;52.878;6.168;2023-12-28T07:28:59;15.52;;;4.57;;
59147;SDS011;44930;52.878;6.168;2023-12-28T07:31:25;12.07;;;2.83;;
59147;SDS011;44930;52.878;6.168;2023-12-28T07:33:51;18.45;;;3.38;;
59147;SDS011;44930;52.878;6.168;2023-12-28T07:36:16;18.98;;;4.03;;
59147;SDS011;44930;52.878;6.168;2023-12-28T07:38:43;8.95;;;2.35;;
59147;SDS011;44930;52.878;6.168;2023-12-28T07:41:09;16.40;;;4.50;;
59147;SDS011;44930;52.878;6.168;2023-12-28T07:43:35;19.27;;;2.78;;
59147;SDS011;44930;52.878;6.168;2023-12-28T07:46:01;19.90;;;4.70;;
59147;SDS011;44930;52.878;6.168;2023-12-28T07:48:27;20.83;;;4.15;;
59147;SDS011;44930;52.878;6.168;2023-12-28T07:50:55;16.15;;;4.20;;
59147;SDS011;44930;52.878;6.168;2023-12-28T07:53:21;17.75;;;3.38;;
59147;SDS011;44930;52.878;6.168;2023-12-28T07:55:47;21.13;;;4.63;;
59147;SDS011;44930;52.878;6.168;2023-12-28T07:58:12;20.90;;;3.65;;
59147;SDS011;44930;52.878;6.168;2023-12-28T08:00:38;19.50;;;4.07;;
59147;SDS011;44930;52.878;6.168;2023-12-28T08:03:04;17.73;;;3.42;;
59147;SDS011;44930;52.878;6.168;2023-12-28T08:05:29;18.27;;;3.50;;
59147;SDS011;44930;52.878;6.168;2023-12-28T08:07:55;16.75;;;3.15;;
59147;SDS011;44930;52.878;6.168;2023-12-28T08:10:21;12.43;;;2.22;;
59147;SDS011;44930;52.878;6.168;2023-12-28T08:12:47;21.88;;;5.18;;
59147;SDS011;44930;52.878;6.168;2023-12-28T08:15:12;24.88;;;5.00;;
59147;SDS011;44930;52.878;6.168;2023-12-28T08:17:38;24.00;;;4.00;;
59147;SDS011;44930;52.878;6.168;2023-12-28T08:20:05;23.15;;;4.15;;
59147;SDS011;44930;52.878;6.168;2023-12-28T08:22:31;24.52;;;3.95;;
59147;SDS011;44930;52.878;6.168;2023-12-28T08:24:57;20.92;;;4.43;;
59147;SDS011;44930;52.878;6.168;2023-12-28T08:27:23;15.63;;;3.95;;
59147;SDS011;44930;52.878;6.168;2023-12-28T08:29:49;29.67;;;3.85;;
59147;SDS011;44930;52.878;6.168;2023-12-28T08:32:15;23.73;;;4.15;;
59147;SDS011;44930;52.878;6.168;2023-12-28T08:34:42;26.38;;;4.68;;
59147;SDS011;44930;52.878;6.168;2023-12-28T08:37:08;29.08;;;5.63;;
59147;SDS011;44930;52.878;6.168;2023-12-28T08:39:34;23.30;;;4.32;;
59147;SDS011;44930;52.878;6.168;2023-12-28T08:41:59;21.13;;;4.45;;
59147;SDS011;44930;52.878;6.168;2023-12-28T08:44:25;26.48;;;4.28;;
59147;SDS011;44930;52.878;6.168;2023-12-28T08:46:51;17.77;;;3.38;;
59147;SDS011;44930;52.878;6.168;2023-12-28T08:49:17;17.38;;;3.28;;
59147;SDS011;44930;52.878;6.168;2023-12-28T08:51:42;18.58;;;3.97;;
59147;SDS011;44930;52.878;6.168;2023-12-28T08:54:08;22.00;;;4.05;;
59147;SDS011;44930;52.878;6.168;2023-12-28T08:56:34;21.02;;;4.90;;
59147;SDS011;44930;52.878;6.168;2023-12-28T08:59:00;23.60;;;4.57;;
59147;SDS011;44930;52.878;6.168;2023-12-28T09:01:26;22.55;;;3.88;;
59147;SDS011;44930;52.878;6.168;2023-12-28T09:03:54;18.08;;;4.00;;
59147;SDS011;44930;52.878;6.168;2023-12-28T09:06:20;19.73;;;3.20;;
59147;SDS011;44930;52.878;6.168;2023-12-28T09:08:50;27.52;;;4.45;;
59147;SDS011;44930;52.878;6.168;2023-12-28T09:11:17;19.58;;;3.33;;
59147;SDS011;44930;52.878;6.168;2023-12-28T09:13:43;17.92;;;3.13;;
59147;SDS011;44930;52.878;6.168;2023-12-28T09:16:10;23.23;;;4.38;;
59147;SDS011;44930;52.878;6.168;2023-12-28T09:18:38;24.60;;;4.15;;
59147;SDS011;44930;52.878;6.168;2023-12-28T09:21:04;18.70;;;3.80;;
59147;SDS011;44930;52.878;6.168;2023-12-28T09:23:31;17.45;;;4.47;;
59147;SDS011;44930;52.878;6.168;2023-12-28T09:25:58;25.38;;;5.05;;
59147;SDS011;44930;52.878;6.168;2023-12-28T09:28:24;16.20;;;3.67;;
59147;SDS011;44930;52.878;6.168;2023-12-28T09:30:49;21.80;;;3.85;;
59147;SDS011;44930;52.878;6.168;2023-12-28T09:33:15;28.35;;;5.43;;
59147;SDS011;44930;52.878;6.168;2023-12-28T09:35:41;20.08;;;3.80;;
59147;SDS011;44930;52.878;6.168;2023-12-28T09:38:07;21.50;;;4.03;;
59147;SDS011;44930;52.878;6.168;2023-12-28T09:40:33;23.73;;;4.45;;
59147;SDS011;44930;52.878;6.168;2023-12-28T09:45:34;25.02;;;4.20;;
59147;SDS011;44930;52.878;6.168;2023-12-28T09:47:59;19.70;;;3.63;;
59147;SDS011;44930;52.878;6.168;2023-12-28T09:50:28;24.83;;;5.65;;
59147;SDS011;44930;52.878;6.168;2023-12-28T09:52:53;17.17;;;3.75;;
59147;SDS011;44930;52.878;6.168;2023-12-28T09:55:19;27.92;;;4.38;;
59147;SDS011;44930;52.878;6.168;2023-12-28T09:57:45;32.28;;;4.60;;
59147;SDS011;44930;52.878;6.168;2023-12-28T10:00:12;17.13;;;2.70;;
59147;SDS011;44930;52.878;6.168;2023-12-28T10:02:38;24.83;;;4.32;;
59147;SDS011;44930;52.878;6.168;2023-12-28T10:05:06;18.40;;;3.30;;
59147;SDS011;44930;52.878;6.168;2023-12-28T10:07:32;22.92;;;4.00;;
59147;SDS011;44930;52.878;6.168;2023-12-28T10:09:57;13.85;;;3.28;;
59147;SDS011;44930;52.878;6.168;2023-12-28T10:12:23;19.65;;;4.38;;
59147;SDS011;44930;52.878;6.168;2023-12-28T10:14:52;18.38;;;5.05;;
59147;SDS011;44930;52.878;6.168;2023-12-28T10:17:18;19.63;;;4.68;;
59147;SDS011;44930;52.878;6.168;2023-12-28T10:19:44;19.10;;;3.80;;
59147;SDS011;44930;52.878;6.168;2023-12-28T10:22:13;22.02;;;4.70;;
59147;SDS011;44930;52.878;6.168;2023-12-28T10:24:43;20.42;;;3.83;;
59147;SDS011;44930;52.878;6.168;2023-12-28T10:27:08;24.98;;;3.83;;
59147;SDS011;44930;52.878;6.168;2023-12-28T10:29:34;19.85;;;4.20;;
59147;SDS011;44930;52.878;6.168;2023-12-28T10:32:01;16.17;;;3.75;;
59147;SDS011;44930;52.878;6.168;2023-12-28T10:34:26;16.83;;;3.33;;
59147;SDS011;44930;52.878;6.168;2023-12-28T10:36:52;21.08;;;3.10;;
59147;SDS011;44930;52.878;6.168;2023-12-28T10:39:19;14.80;;;3.30;;
59147;SDS011;44930;52.878;6.168;2023-12-28T10:41:45;22.92;;;3.95;;
59147;SDS011;44930;52.878;6.168;2023-12-28T10:44:15;20.60;;;3.85;;
59147;SDS011;44930;52.878;6.168;2023-12-28T10:46:43;19.38;;;3.53;;
59147;SDS011;44930;52.878;6.168;2023-12-28T10:49:10;28.50;;;4.15;;
59147;SDS011;44930;52.878;6.168;2023-12-28T10:51:41;20.92;;;4.18;;
59147;SDS011;44930;52.878;6.168;2023-12-28T11:02:11;18.65;;;3.72;;
59147;SDS011;44930;52.878;6.168;2023-12-28T11:04:43;16.52;;;3.38;;
59147;SDS011;44930;52.878;6.168;2023-12-28T11:07:13;20.10;;;4.15;;
59147;SDS011;44930;52.878;6.168;2023-12-28T11:09:42;10.95;;;3.40;;
59147;SDS011;44930;52.878;6.168;2023-12-28T11:12:08;18.90;;;3.75;;
59147;SDS011;44930;52.878;6.168;2023-12-28T11:14:41;12.40;;;3.08;;
59147;SDS011;44930;52.878;6.168;2023-12-28T11:17:09;14.43;;;3.90;;
59147;SDS011;44930;52.878;6.168;2023-12-28T11:19:36;19.02;;;4.03;;
59147;SDS011;44930;52.878;6.168;2023-12-28T11:22:03;17.73;;;3.17;;
59147;SDS011;44930;52.878;6.168;2023-12-28T11:24:29;19.73;;;4.72;;
59147;SDS011;44930;52.878;6.168;2023-12-28T11:26:56;17.90;;;3.83;;
59147;SDS011;44930;52.878;6.168;2023-12-28T11:29:22;16.67;;;3.15;;
59147;SDS011;44930;52.878;6.168;2023-12-28T11:31:51;22.27;;;4.25;;
59147;SDS011;44930;52.878;6.168;2023-12-28T11:34:17;18.15;;;3.60;;
59147;SDS011;44930;52.878;6.168;2023-12-28T11:36:45;16.15;;;4.35;;
59147;SDS011;44930;52.878;6.168;2023-12-28T11:39:14;18.02;;;5.25;;
59147;SDS011;44930;52.878;6.168;2023-12-28T11:42:05;16.80;;;3.83;;
59147;SDS011;44930;52.878;6.168;2023-12-28T11:44:39;24.38;;;4.32;;
59147;SDS011;44930;52.878;6.168;2023-12-28T11:49:42;18.83;;;3.95;;
59147;SDS011;44930;52.878;6.168;2023-12-28T11:52:21;26.73;;;4.53;;
59147;SDS011;44930;52.878;6.168;2023-12-28T11:54:54;17.48;;;3.70;;
59147;SDS011;44930;52.878;6.168;2023-12-28T11:57:20;19.40;;;4.32;;
59147;SDS011;44930;52.878;6.168;2023-12-28T11:59:48;29.38;;;4.40;;
59147;SDS011;44930;52.878;6.168;2023-12-28T12:02:14;27.80;;;4.22;;
59147;SDS011;44930;52.878;6.168;2023-12-28T12:04:40;28.52;;;4.80;;
59147;SDS011;44930;52.878;6.168;2023-12-28T12:07:06;27.15;;;4.63;;
59147;SDS011;44930;52.878;6.168;2023-12-28T12:09:31;16.52;;;3.95;;
59147;SDS011;44930;52.878;6.168;2023-12-28T12:12:02;19.88;;;3.97;;
59147;SDS011;44930;52.878;6.168;2023-12-28T12:14:28;21.60;;;5.82;;
59147;SDS011;44930;52.878;6.168;2023-12-28T12:16:55;19.98;;;4.13;;
59147;SDS011;44930;52.878;6.168;2023-12-28T12:19:24;17.88;;;3.67;;
59147;SDS011;44930;52.878;6.168;2023-12-28T12:21:57;19.90;;;4.28;;
59147;SDS011;44930;52.878;6.168;2023-12-28T12:24:23;23.85;;;4.72;;
59147;SDS011;44930;52.878;6.168;2023-12-28T12:26:49;21.48;;;3.83;;
59147;SDS011;44930;52.878;6.168;2023-12-28T12:29:16;21.13;;;4.85;;
59147;SDS011;44930;52.878;6.168;2023-12-28T12:31:42;28.23;;;4.97;;
59147;SDS011;44930;52.878;6.168;2023-12-28T12:34:09;22.35;;;4.28;;
59147;SDS011;44930;52.878;6.168;2023-12-28T12:36:35;21.80;;;3.72;;
59147;SDS011;44930;52.878;6.168;2023-12-28T12:39:02;24.13;;;3.90;;
59147;SDS011;44930;52.878;6.168;2023-12-28T12:41:31;17.63;;;3.72;;
59147;SDS011;44930;52.878;6.168;2023-12-28T12:44:00;23.85;;;4.80;;
59147;SDS011;44930;52.878;6.168;2023-12-28T12:46:26;26.48;;;4.90;;
59147;SDS011;44930;52.878;6.168;2023-12-28T12:48:55;19.85;;;3.60;;
59147;SDS011;44930;52.878;6.168;2023-12-28T12:51:27;23.38;;;3.72;;
59147;SDS011;44930;52.878;6.168;2023-12-28T12:53:59;21.75;;;4.47;;
59147;SDS011;44930;52.878;6.168;2023-12-28T12:56:31;23.10;;;6.30;;
59147;SDS011;44930;52.878;6.168;2023-12-28T12:58:57;27.10;;;4.25;;
59147;SDS011;44930;52.878;6.168;2023-12-28T13:01:23;21.83;;;3.78;;
59147;SDS011;44930;52.878;6.168;2023-12-28T13:03:49;24.80;;;4.03;;
59147;SDS011;44930;52.878;6.168;2023-12-28T13:06:16;28.40;;;4.72;;
59147;SDS011;44930;52.878;6.168;2023-12-28T13:08:42;24.05;;;4.28;;
59147;SDS011;44930;52.878;6.168;2023-12-28T13:11:07;21.92;;;4.43;;
59147;SDS011;44930;52.878;6.168;2023-12-28T13:13:33;26.40;;;4.88;;
59147;SDS011;44930;52.878;6.168;2023-12-28T13:16:00;20.95;;;4.60;;
59147;SDS011;44930;52.878;6.168;2023-12-28T13:18:26;19.33;;;3.83;;
59147;SDS011;44930;52.878;6.168;2023-12-28T13:20:51;24.35;;;5.80;;
59147;SDS011;44930;52.878;6.168;2023-12-28T13:23:17;26.75;;;4.32;;
59147;SDS011;44930;52.878;6.168;2023-12-28T13:25:42;24.63;;;4.57;;
59147;SDS011;44930;52.878;6.168;2023-12-28T13:28:09;21.98;;;4.53;;
59147;SDS011;44930;52.878;6.168;2023-12-28T13:30:35;20.52;;;4.28;;
59147;SDS011;44930;52.878;6.168;2023-12-28T13:33:02;22.60;;;3.20;;
59147;SDS011;44930;52.878;6.168;2023-12-28T13:35:28;28.42;;;4.78;;
59147;SDS011;44930;52.878;6.168;2023-12-28T13:37:54;27.45;;;4.18;;
59147;SDS011;44930;52.878;6.168;2023-12-28T13:40:20;27.13;;;3.88;;
59147;SDS011;44930;52.878;6.168;2023-12-28T13:42:45;26.42;;;3.65;;
59147;SDS011;44930;52.878;6.168;2023-12-28T13:45:11;23.45;;;4.63;;
59147;SDS011;44930;52.878;6.168;2023-12-28T13:47:37;26.77;;;4.90;;
59147;SDS011;44930;52.878;6.168;2023-12-28T13:50:03;24.95;;;3.85;;
59147;SDS011;44930;52.878;6.168;2023-12-28T13:52:31;19.75;;;4.10;;
59147;SDS011;44930;52.878;6.168;2023-12-28T13:54:57;21.27;;;3.83;;
59147;SDS011;44930;52.878;6.168;2023-12-28T13:57:22;20.83;;;4.38;;
59147;SDS011;44930;52.878;6.168;2023-12-28T13:59:48;21.95;;;5.10;;
59147;SDS011;44930;52.878;6.168;2023-12-28T14:02:13;15.45;;;4.20;;
59147;SDS011;44930;52.878;6.168;2023-12-28T14:04:39;18.95;;;3.60;;
59147;SDS011;44930;52.878;6.168;2023-12-28T14:07:05;29.23;;;5.57;;
59147;SDS011;44930;52.878;6.168;2023-12-28T14:09:31;23.33;;;3.90;;
59147;SDS011;44930;52.878;6.168;2023-12-28T14:11:58;22.52;;;4.18;;
59147;SDS011;44930;52.878;6.168;2023-12-28T14:14:23;18.10;;;3.20;;
59147;SDS011;44930;52.878;6.168;2023-12-28T14:16:49;28.13;;;4.38;;
59147;SDS011;44930;52.878;6.168;2023-12-28T14:19:15;17.88;;;4.15;;
59147;SDS011;44930;52.878;6.168;2023-12-28T14:21:40;22.98;;;3.97;;
59147;SDS011;44930;52.878;6.168;2023-12-28T14:24:06;22.23;;;3.85;;
59147;SDS011;44930;52.878;6.168;2023-12-28T14:26:33;23.27;;;4.47;;
59147;SDS011;44930;52.878;6.168;2023-12-28T14:29:00;22.95;;;3.40;;
59147;SDS011;44930;52.878;6.168;2023-12-28T14:31:30;17.63;;;3.85;;
59147;SDS011;44930;52.878;6.168;2023-12-28T14:33:56;23.77;;;4.40;;
59147;SDS011;44930;52.878;6.168;2023-12-28T14:38:57;23.80;;;3.85;;
59147;SDS011;44930;52.878;6.168;2023-12-28T14:41:23;20.83;;;4.45;;
59147;SDS011;44930;52.878;6.168;2023-12-28T14:43:49;16.08;;;3.75;;
59147;SDS011;44930;52.878;6.168;2023-12-28T14:46:14;19.17;;;3.22;;
59147;SDS011;44930;52.878;6.168;2023-12-28T14:48:40;22.75;;;3.92;;
59147;SDS011;44930;52.878;6.168;2023-12-28T14:51:05;17.05;;;3.80;;